Time;durP1;ratioP1;P1;durP2;ratioP2;P2;SDS_P1;SDS_P2;PMS_P1;PMS_P2;Temp;Humidity;BMP_temperature;BMP_pressure;BME280_temperature;BME280_humidity;BME280_pressure;Samples;Min_cycle;Max_cycle;Signal;HPM_P1;HPM_P2
2023/01/06 00:01:16;;;;;;;7.97;2.45;;;;;;;11.71;73.88;101798.59;5103013;28;20062;-66
2023/01/06 00:03:48;;;;;;;5.60;1.80;;;;;;;11.70;73.74;101791.56;5101131;28;20036;-64
2023/01/06 00:06:16;;;;;;;7.25;2.03;;;;;;;11.71;73.82;101803.16;5105429;28;20158;-64
2023/01/06 00:08:43;;;;;;;4.90;2.28;;;;;;;11.69;73.93;101797.97;5102434;28;20048;-56
2023/01/06 00:11:15;;;;;;;5.75;2.35;;;;;;;11.69;73.88;101789.91;5102175;28;20055;-66
2023/01/06 00:13:42;;;;;;;6.38;2.45;;;;;;;11.67;74.12;101775.81;5104914;28;20067;-64
2023/01/06 00:16:17;;;;;;;6.60;2.55;;;;;;;11.67;73.72;101786.59;5101701;28;20055;-63
2023/01/06 00:18:46;;;;;;;10.20;2.42;;;;;;;11.68;73.88;101782.03;5102513;28;20431;-65
2023/01/06 00:21:15;;;;;;;7.03;2.75;;;;;;;11.66;74.05;101782.22;5104652;28;20400;-65
2023/01/06 00:23:43;;;;;;;5.03;2.35;;;;;;;11.66;73.82;101776.84;5104713;28;20044;-65
2023/01/06 00:26:11;;;;;;;5.05;1.80;;;;;;;11.66;73.85;101776.03;5104377;28;20091;-64
2023/01/06 00:28:39;;;;;;;4.50;2.22;;;;;;;11.65;74.16;101769.81;5104929;28;20104;-65
2023/01/06 00:31:08;;;;;;;7.30;2.13;;;;;;;11.65;73.89;101769.81;5102892;28;20552;-66
2023/01/06 00:33:38;;;;;;;4.10;1.73;;;;;;;11.66;73.91;101774.16;5105044;28;20463;-65
2023/01/06 00:36:08;;;;;;;4.57;1.70;;;;;;;11.62;74.13;101767.53;5103673;28;20147;-66
2023/01/06 00:38:37;;;;;;;4.05;1.75;;;;;;;11.65;73.99;101774.38;5104780;28;20052;-65
2023/01/06 00:42:02;;;;;;;4.75;1.70;;;;;;;11.65;73.87;101767.13;5103902;28;20044;-67
2023/01/06 00:43:56;;;;;;;4.68;1.77;;;;;;;11.64;73.77;101770.00;5092192;28;20407;-66
2023/01/06 00:46:27;;;;;;;4.25;1.75;;;;;;;11.64;73.76;101770.00;5104497;28;20055;-65
2023/01/06 00:48:58;;;;;;;4.45;2.10;;;;;;;11.64;74.08;101770.00;5095824;28;20086;-66
2023/01/06 00:51:36;;;;;;;3.78;1.88;;;;;;;11.63;73.66;101771.88;5103708;28;20044;-66
2023/01/06 00:54:04;;;;;;;3.15;1.65;;;;;;;11.63;73.92;101769.19;5104063;28;20054;-66
2023/01/06 00:56:32;;;;;;;4.97;2.08;;;;;;;11.63;73.85;101766.50;5102230;28;20619;-64
2023/01/06 00:59:02;;;;;;;5.45;2.00;;;;;;;11.63;73.87;101766.50;5104564;28;20048;-66
2023/01/06 01:01:30;;;;;;;5.32;2.40;;;;;;;11.65;74.05;101775.19;5099498;28;20433;-66
2023/01/06 01:03:59;;;;;;;7.15;1.98;;;;;;;11.65;73.73;101766.28;5102339;28;20048;-66
2023/01/06 01:06:27;;;;;;;4.55;1.80;;;;;;;11.65;73.66;101766.28;5101561;28;20047;-66
2023/01/06 01:08:56;;;;;;;5.15;1.80;;;;;;;11.65;73.47;101764.44;5102876;28;20127;-65
2023/01/06 01:14:12;;;;;;;4.37;1.70;;;;;;;11.65;73.67;101759.03;5097310;28;20054;-64
2023/01/06 01:16:40;;;;;;;2.78;1.38;;;;;;;11.64;73.51;101756.56;5103371;28;20302;-65
2023/01/06 01:19:09;;;;;;;3.95;1.77;;;;;;;11.65;73.77;101755.50;5102285;28;20060;-65
2023/01/06 01:21:37;;;;;;;4.10;1.77;;;;;;;11.65;73.55;101756.34;5104406;28;20040;-64
2023/01/06 01:24:06;;;;;;;5.85;1.83;;;;;;;11.64;73.56;101756.56;5103298;28;20055;-66
2023/01/06 01:26:33;;;;;;;5.22;1.65;;;;;;;11.63;73.62;101753.03;5100073;28;20052;-66
2023/01/06 01:29:02;;;;;;;3.38;1.50;;;;;;;11.55;73.80;101731.69;5094203;28;20105;-64
2023/01/06 01:31:30;;;;;;;4.03;2.35;;;;;;;11.63;73.48;101742.25;5103880;28;20064;-66
2023/01/06 01:33:58;;;;;;;5.60;1.60;;;;;;;11.63;73.50;101742.25;5103967;28;20047;-66
2023/01/06 01:36:27;;;;;;;2.13;1.25;;;;;;;11.61;73.32;101743.50;5102102;28;20480;-65
2023/01/06 01:38:56;;;;;;;8.20;1.60;;;;;;;11.62;73.29;101743.28;5104170;28;20079;-66
2023/01/06 01:41:25;;;;;;;5.20;1.67;;;;;;;11.61;73.31;101733.56;5103020;28;20184;-66
2023/01/06 01:43:55;;;;;;;5.82;1.40;;;;;;;11.56;73.81;101736.03;5103399;28;20075;-65
2023/01/06 01:46:27;;;;;;;7.45;2.13;;;;;;;11.60;73.56;101744.53;5098680;28;20400;-66
2023/01/06 01:48:58;;;;;;;4.70;1.73;;;;;;;11.61;73.33;101738.13;5104010;28;20082;-66
2023/01/06 01:51:33;;;;;;;2.38;1.23;;;;;;;11.59;73.38;101732.94;5104299;28;20060;-66
2023/01/06 01:54:07;;;;;;;3.03;1.38;;;;;;;11.60;73.45;101725.69;5102725;28;20104;-66
2023/01/06 01:56:41;;;;;;;4.95;1.30;;;;;;;11.59;73.47;101724.03;5097052;28;20131;-65
2023/01/06 01:59:13;;;;;;;3.83;1.35;;;;;;;11.55;73.17;101706.63;5103326;28;20055;-65
2023/01/06 02:01:41;;;;;;;3.72;1.40;;;;;;;11.57;73.27;101718.03;5100937;28;20040;-65
2023/01/06 02:04:10;;;;;;;5.38;1.85;;;;;;;11.56;73.22;101706.44;5103789;28;20044;-65
2023/01/06 02:06:40;;;;;;;5.60;1.30;;;;;;;11.56;73.57;101698.34;5102098;28;20054;-65
2023/01/06 02:09:16;;;;;;;5.82;1.60;;;;;;;11.56;73.30;101700.22;5106809;28;20550;-61
2023/01/06 02:11:46;;;;;;;2.25;1.10;;;;;;;11.55;73.05;101690.47;5101936;28;20058;-66
2023/01/06 02:14:16;;;;;;;2.75;1.13;;;;;;;11.55;73.37;101695.88;5107467;28;20044;-65
2023/01/06 02:16:58;;;;;;;4.13;1.23;;;;;;;11.56;73.09;101698.34;5107443;28;20088;-66
2023/01/06 02:20:06;;;;;;;5.93;1.38;;;;;;;11.55;73.16;101698.56;5104570;28;20108;-66
2023/01/06 02:23:10;;;;;;;7.30;1.65;;;;;;;11.54;73.17;101696.91;5025688;28;20566;-66
2023/01/06 02:26:04;;;;;;;3.90;1.33;;;;;;;11.53;73.27;101701.47;5005573;28;20057;-66
2023/01/06 02:29:00;;;;;;;3.00;1.40;;;;;;;11.53;73.27;101696.06;5027943;28;20113;-66
2023/01/06 02:31:47;;;;;;;;;;;;;;;11.53;73.29;101698.78;5025345;28;20161;-66
2023/01/06 02:34:26;;;;;;;5.20;1.25;;;;;;;11.52;73.18;101689.03;5030033;28;20036;-61
2023/01/06 02:37:05;;;;;;;2.13;1.08;;;;;;;11.52;73.12;101686.34;5031626;28;20100;-65
2023/01/06 02:39:43;;;;;;;4.35;1.40;;;;;;;11.52;73.02;101669.38;5018487;28;20058;-65
2023/01/06 02:42:19;;;;;;;4.15;1.30;;;;;;;11.53;72.95;101662.94;5027629;28;20118;-63
2023/01/06 02:44:58;;;;;;;3.40;1.27;;;;;;;11.54;73.01;101665.44;5023781;28;20060;-65
2023/01/06 02:47:35;;;;;;;4.72;1.20;;;;;;;11.53;73.11;101661.09;5025245;28;20119;-66
2023/01/06 02:50:16;;;;;;;3.08;1.27;;;;;;;11.54;72.79;101665.44;5032414;28;20049;-65
2023/01/06 02:52:50;;;;;;;4.07;1.00;;;;;;;11.54;72.88;101653.84;5034302;28;20124;-67
2023/01/06 02:55:23;;;;;;;6.15;1.20;;;;;;;11.54;72.65;101646.59;5032616;28;20048;-65
2023/01/06 02:57:57;;;;;;;2.35;1.00;;;;;;;11.54;72.68;101643.06;5052591;28;20469;-65
2023/01/06 03:00:33;;;;;;;4.18;1.30;;;;;;;11.53;72.72;101642.22;5102506;28;20107;-65
2023/01/06 03:03:04;;;;;;;4.07;1.13;;;;;;;11.54;72.64;101643.06;5106757;28;20044;-65
2023/01/06 03:05:36;;;;;;;4.22;1.40;;;;;;;11.53;72.76;101639.53;5105122;28;20075;-62
2023/01/06 03:08:12;;;;;;;5.88;1.48;;;;;;;11.53;72.73;101633.34;5102830;28;20048;-66
2023/01/06 03:10:44;;;;;;;4.50;1.20;;;;;;;11.53;72.35;101641.41;5107371;28;20051;-66
2023/01/06 03:13:17;;;;;;;2.58;1.15;;;;;;;11.54;72.68;101643.06;5105142;28;20048;-65
2023/01/06 03:15:45;;;;;;;4.05;1.40;;;;;;;11.52;72.50;101642.44;5102105;28;20036;-66
2023/01/06 03:18:13;;;;;;;5.22;1.50;;;;;;;11.52;72.42;101637.06;5105940;28;20047;-64
2023/01/06 03:20:42;;;;;;;2.72;1.00;;;;;;;11.52;72.78;101648.66;5105808;28;20048;-66
2023/01/06 03:23:13;;;;;;;2.38;1.10;;;;;;;11.51;72.52;101630.84;5104353;28;20097;-66
2023/01/06 03:25:40;;;;;;;3.03;1.10;;;;;;;11.50;72.51;101631.88;5105949;28;20055;-66
2023/01/06 03:28:08;;;;;;;2.97;1.40;;;;;;;11.49;72.47;101616.78;5106941;28;20462;-66
2023/01/06 03:30:43;;;;;;;4.35;1.10;;;;;;;11.47;72.65;101626.09;5103162;28;20111;-54
2023/01/06 03:33:21;;;;;;;4.55;1.45;;;;;;;11.48;72.66;101633.13;5104559;28;20214;-66
2023/01/06 03:36:00;;;;;;;4.05;1.20;;;;;;;11.48;72.53;101636.66;5105541;28;20044;-66
2023/01/06 03:38:42;;;;;;;6.57;1.80;;;;;;;11.48;72.18;101642.03;5104722;28;20048;-65
2023/01/06 03:41:19;;;;;;;3.60;1.70;;;;;;;11.48;72.43;101630.44;5103907;28;20087;-66
2023/01/06 03:43:58;;;;;;;4.88;1.40;;;;;;;11.45;72.35;101620.91;5105498;28;20122;-65
2023/01/06 03:46:34;;;;;;;5.28;1.10;;;;;;;11.48;72.45;101614.28;5104829;28;20055;-66
2023/01/06 03:49:07;;;;;;;4.05;1.52;;;;;;;11.47;72.56;101621.53;5103745;28;20048;-65
2023/01/06 03:51:47;;;;;;;1.95;1.10;;;;;;;11.47;72.47;101623.41;5106095;28;20504;-65
2023/01/06 03:54:24;;;;;;;4.05;1.17;;;;;;;11.48;72.47;101625.06;5094558;28;20108;-64
2023/01/06 03:56:57;;;;;;;;;;;;;;;11.46;72.61;101630.66;5100390;28;20048;-66
2023/01/06 03:59:29;;;;;;;5.10;1.10;;;;;;;11.47;72.40;101626.09;5103842;28;20014;-65
2023/01/06 04:01:58;;;;;;;5.25;1.15;;;;;;;11.47;72.47;101620.72;5105862;28;20104;-66
2023/01/06 04:04:26;;;;;;;2.28;1.02;;;;;;;11.47;72.53;101612.63;5102902;28;20539;-63
2023/01/06 04:06:55;;;;;;;5.07;1.83;;;;;;;11.33;72.47;101592.97;5106102;28;20063;-65
2023/01/06 04:09:23;;;;;;;5.30;1.20;;;;;;;11.45;72.69;101607.47;5104267;28;20040;-65
2023/01/06 04:14:36;;;;;;;2.33;1.08;;;;;;;11.43;72.59;101589.84;5103970;28;20055;-66
2023/01/06 04:17:04;;;;;;;2.25;1.27;;;;;;;11.44;72.71;101596.91;5104606;28;20052;-64
2023/01/06 04:19:32;;;;;;;2.92;0.90;;;;;;;11.45;72.50;101598.56;5104092;28;20087;-60
2023/01/06 04:22:01;;;;;;;2.47;1.35;;;;;;;11.42;72.31;101597.09;5105826;28;20075;-65
2023/01/06 04:24:30;;;;;;;5.72;1.00;;;;;;;11.42;72.82;101591.72;5105068;28;20052;-65
2023/01/06 04:26:58;;;;;;;4.25;0.90;;;;;;;11.43;72.48;101597.94;5103341;28;20082;-66
2023/01/06 04:29:26;;;;;;;3.38;1.73;;;;;;;11.43;72.73;101588.00;5103166;28;20423;-65
2023/01/06 04:31:53;;;;;;;3.70;1.40;;;;;;;11.44;72.67;101586.13;5104018;28;20072;-65
2023/01/06 04:34:21;;;;;;;2.60;1.05;;;;;;;11.44;72.73;101567.28;5108534;28;20047;-66
2023/01/06 04:36:49;;;;;;;2.85;0.85;;;;;;;11.40;72.60;101566.88;5097229;28;20104;-65
2023/01/06 04:39:18;;;;;;;3.40;0.88;;;;;;;11.43;72.59;101565.63;5103579;28;20052;-66
2023/01/06 04:41:46;;;;;;;2.63;0.90;;;;;;;11.43;72.63;101555.69;5104015;28;20052;-66
2023/01/06 04:44:14;;;;;;;4.07;1.10;;;;;;;11.44;72.39;101554.66;5104489;28;20043;-64
2023/01/06 04:46:42;;;;;;;2.00;0.77;;;;;;;11.44;72.62;101548.44;5096697;28;20107;-66
2023/01/06 04:49:09;;;;;;;8.27;1.35;;;;;;;11.43;72.51;101547.63;5104249;28;20134;-66
2023/01/06 04:51:37;;;;;;;1.02;0.63;;;;;;;11.43;72.46;101549.50;5104631;28;20075;-65
2023/01/06 04:54:05;;;;;;;1.75;0.82;;;;;;;11.43;72.48;101541.41;5104127;28;20043;-66
2023/01/06 04:56:34;;;;;;;1.83;0.82;;;;;;;11.44;72.62;101543.06;5104281;28;20159;-66
2023/01/06 04:59:02;;;;;;;1.38;0.80;;;;;;;11.43;72.54;101538.72;5112414;28;20079;-56
2023/01/06 05:01:30;;;;;;;1.98;0.88;;;;;;;11.43;72.54;101546.78;5103326;28;20062;-65
2023/01/06 05:03:58;;;;;;;1.17;1.00;;;;;;;11.28;72.32;101522.81;5101780;28;20073;-61
2023/01/06 05:06:26;;;;;;;2.97;1.10;;;;;;;11.41;72.48;101526.31;5104407;28;20070;-65
2023/01/06 05:08:54;;;;;;;2.03;1.23;;;;;;;11.42;72.61;101535.22;5105171;28;20130;-65
2023/01/06 05:11:23;;;;;;;1.83;0.80;;;;;;;11.41;72.46;101542.44;5102244;28;20111;-64
2023/01/06 05:13:54;;;;;;;1.95;0.85;;;;;;;11.40;72.30;101516.56;5106371;28;20078;-65
2023/01/06 05:16:25;;;;;;;8.30;1.23;;;;;;;11.41;72.30;101523.59;5102553;28;20082;-63
2023/01/06 05:18:54;;;;;;;2.03;0.68;;;;;;;11.40;72.20;101519.25;5099542;28;20052;-66
2023/01/06 05:21:23;;;;;;;1.73;1.20;;;;;;;11.41;72.41;101522.78;5104090;28;20052;-65
2023/01/06 05:23:51;;;;;;;3.90;0.93;;;;;;;11.41;72.26;101517.41;5104125;28;20130;-65
2023/01/06 05:26:21;;;;;;;3.90;0.90;;;;;;;11.40;72.28;101516.56;5102847;28;20071;-65
2023/01/06 05:28:49;;;;;;;7.10;1.60;;;;;;;11.34;72.37;101511.22;5103768;28;20100;-65
2023/01/06 05:31:18;;;;;;;1.38;0.70;;;;;;;11.40;72.54;101531.91;5100025;28;20062;-66
2023/01/06 05:33:46;;;;;;;2.17;0.88;;;;;;;11.38;72.25;101528.59;5100050;28;20047;-62
2023/01/06 05:36:15;;;;;;;1.15;0.55;;;;;;;11.37;72.48;101525.06;5104068;28;20079;-64
2023/01/06 05:38:44;;;;;;;2.45;1.13;;;;;;;11.37;72.78;101530.44;5104164;28;20377;-65
2023/01/06 05:41:11;;;;;;;1.15;0.70;;;;;;;11.39;72.39;101536.44;5103784;28;20074;-65
2023/01/06 05:43:39;;;;;;;0.70;0.70;;;;;;;11.38;72.31;101533.97;5102129;28;20154;-64
2023/01/06 05:46:09;;;;;;;1.58;0.65;;;;;;;11.37;72.35;101538.53;5103872;28;20044;-65
2023/01/06 05:48:39;;;;;;;4.35;1.83;;;;;;;11.36;72.07;101544.94;5104323;28;20052;-65
2023/01/06 05:51:09;;;;;;;1.38;0.90;;;;;;;11.37;72.52;101548.47;5101465;28;20477;-65
2023/01/06 05:53:40;;;;;;;4.03;0.90;;;;;;;11.36;72.58;101536.03;5102122;28;20067;-64
2023/01/06 05:56:10;;;;;;;1.77;0.80;;;;;;;11.36;72.24;101541.44;5101786;28;20135;-66
2023/01/06 05:58:40;;;;;;;0.85;0.70;;;;;;;11.38;72.14;101544.72;5104711;28;20127;-65
2023/01/06 06:01:15;;;;;;;3.45;1.02;;;;;;;11.36;72.15;101552.19;5100745;28;20048;-65
2023/01/06 06:03:45;;;;;;;4.20;1.03;;;;;;;11.35;72.23;101542.47;4742224;28;10000196;-64
2023/01/06 06:06:13;;;;;;;1.80;0.90;;;;;;;11.35;72.28;101542.47;5103380;28;20078;-64
2023/01/06 06:08:41;;;;;;;1.77;1.10;;;;;;;11.36;72.28;101544.94;5097862;28;20063;-65
2023/01/06 06:11:12;;;;;;;2.38;0.90;;;;;;;11.36;72.57;101541.44;5098335;28;20052;-65
2023/01/06 06:13:44;;;;;;;1.55;0.73;;;;;;;11.28;72.53;101518.25;5099536;28;20072;-65
2023/01/06 06:16:13;;;;;;;2.10;1.08;;;;;;;11.37;72.31;101535.84;5098546;28;20086;-64
2023/01/06 06:18:42;;;;;;;1.70;0.80;;;;;;;11.37;72.17;101543.91;5088760;28;20560;-66
2023/01/06 06:21:13;;;;;;;3.05;0.90;;;;;;;11.36;72.44;101544.94;5100670;28;20059;-65
2023/01/06 06:23:41;;;;;;;4.53;1.20;;;;;;;11.35;72.44;101545.16;5098520;28;20052;-63
2023/01/06 06:26:10;;;;;;;2.70;0.98;;;;;;;11.36;72.36;101538.75;5098919;28;20047;-66
2023/01/06 06:28:40;;;;;;;3.42;1.02;;;;;;;11.37;72.21;101548.47;5099498;28;20076;-66
2023/01/06 06:31:09;;;;;;;2.10;1.15;;;;;;;11.37;72.39;101538.53;5097907;28;20090;-66
2023/01/06 06:33:38;;;;;;;2.08;0.88;;;;;;;11.36;72.19;101549.50;5099620;28;20047;-65
2023/01/06 06:36:10;;;;;;;1.90;1.27;;;;;;;11.36;72.33;101544.13;5095896;28;20040;-66
2023/01/06 06:38:39;;;;;;;1.17;0.82;;;;;;;11.35;72.29;101548.69;5098402;28;20047;-65
2023/01/06 06:41:07;;;;;;;1.80;0.70;;;;;;;11.35;72.44;101547.84;5096977;28;20052;-66
2023/01/06 06:43:35;;;;;;;3.25;0.80;;;;;;;11.35;72.37;101553.22;5095178;28;20056;-61
2023/01/06 06:46:03;;;;;;;1.67;0.80;;;;;;;11.34;72.26;101544.31;5103868;28;20079;-60
2023/01/06 06:48:31;;;;;;;1.20;0.77;;;;;;;11.35;72.62;101537.09;5099952;28;20515;-64
2023/01/06 06:51:01;;;;;;;2.15;0.80;;;;;;;11.34;72.33;101544.31;5091370;28;20144;-67
2023/01/06 06:53:29;;;;;;;2.03;0.65;;;;;;;11.34;72.45;101543.50;5098957;28;20131;-63
2023/01/06 06:55:59;;;;;;;2.47;1.30;;;;;;;11.34;72.45;101549.72;5102916;28;20055;-66
2023/01/06 06:58:27;;;;;;;1.42;0.93;;;;;;;11.34;72.44;101546.19;5101354;28;20554;-66
2023/01/06 07:00:55;;;;;;;1.92;0.90;;;;;;;11.34;72.65;101556.97;5095471;28;20063;-66
2023/01/06 07:03:24;;;;;;;2.08;0.90;;;;;;;11.33;72.76;101548.06;5109577;28;20152;-67
2023/01/06 07:05:52;;;;;;;0.82;0.60;;;;;;;11.33;72.94;101555.31;5102617;28;20051;-66
2023/01/06 07:08:20;;;;;;;4.25;0.90;;;;;;;11.32;72.52;101564.41;5103280;28;20072;-66
2023/01/06 07:10:49;;;;;;;2.80;0.85;;;;;;;11.31;72.76;101558.19;5102898;28;20074;-62
2023/01/06 07:13:18;;;;;;;2.67;0.85;;;;;;;11.32;72.81;101576.00;5101532;28;20089;-64
2023/01/06 07:15:46;;;;;;;2.13;1.48;;;;;;;11.33;72.99;101577.66;5099910;28;20066;-65
2023/01/06 07:18:15;;;;;;;2.03;0.82;;;;;;;11.34;72.88;101571.25;5104191;28;20067;-65
2023/01/06 07:20:47;;;;;;;1.95;0.80;;;;;;;11.35;72.49;101578.28;5102622;28;20048;-65
2023/01/06 07:23:15;;;;;;;1.65;1.00;;;;;;;11.38;72.52;101575.16;5111624;28;20055;-67
2023/01/06 07:25:43;;;;;;;2.45;0.88;;;;;;;11.36;72.54;101568.34;5103249;28;20647;-66
2023/01/06 07:28:11;;;;;;;1.13;0.70;;;;;;;11.34;72.52;101571.25;5102838;28;20073;-65
2023/01/06 07:30:40;;;;;;;2.80;1.27;;;;;;;11.33;72.87;101569.59;5098099;28;20127;-65
2023/01/06 07:33:08;;;;;;;1.70;0.82;;;;;;;11.33;72.87;101576.84;5104798;28;20163;-66
2023/01/06 07:35:36;;;;;;;1.95;1.23;;;;;;;11.30;73.54;101575.38;5099901;28;20600;-66
2023/01/06 07:38:04;;;;;;;3.03;1.45;;;;;;;11.29;73.58;101576.41;5101672;28;20044;-66
2023/01/06 07:40:32;;;;;;;0.95;0.80;;;;;;;11.35;73.58;101574.75;5097809;28;20219;-65
2023/01/06 07:43:04;;;;;;;4.10;1.45;;;;;;;11.33;73.37;101574.97;5102808;28;20123;-66
2023/01/06 07:45:33;;;;;;;3.38;1.10;;;;;;;11.33;73.08;101572.28;5094930;28;20314;-68
2023/01/06 07:48:02;;;;;;;6.13;1.00;;;;;;;11.32;73.44;101578.69;5100004;28;20441;-67
2023/01/06 07:50:31;;;;;;;3.00;1.20;;;;;;;11.27;74.05;101589.25;5102492;28;20050;-68
2023/01/06 07:52:59;;;;;;;2.65;1.13;;;;;;;11.30;73.86;101591.53;5096902;28;20086;-64
2023/01/06 07:55:28;;;;;;;2.08;0.88;;;;;;;11.30;73.87;101594.22;5102275;28;20059;-65
2023/01/06 07:57:57;;;;;;;3.97;0.80;;;;;;;11.33;73.88;101590.28;5101181;28;20044;-66
2023/01/06 08:00:25;;;;;;;1.38;0.80;;;;;;;11.34;73.61;101591.94;5090412;28;20082;-66
2023/01/06 08:02:53;;;;;;;7.07;1.05;;;;;;;11.33;73.49;101609.94;5098210;28;20079;-67
2023/01/06 08:05:22;;;;;;;3.25;0.90;;;;;;;11.33;73.49;101612.66;5101706;28;20056;-67
2023/01/06 08:07:50;;;;;;;3.10;1.10;;;;;;;11.34;73.96;101625.06;5101683;28;20112;-67
2023/01/06 08:10:18;;;;;;;3.35;1.25;;;;;;;11.32;73.88;101626.31;5099667;28;20111;-66
2023/01/06 08:12:45;;;;;;;3.65;1.20;;;;;;;11.36;73.77;101624.84;5105058;28;20152;-67
2023/01/06 08:15:13;;;;;;;2.53;0.85;;;;;;;11.36;73.85;101624.84;5097042;28;20048;-65
2023/01/06 08:17:41;;;;;;;0.75;0.63;;;;;;;11.35;73.78;101620.50;5102060;28;20052;-66
2023/01/06 08:20:10;;;;;;;3.28;0.95;;;;;;;11.35;73.69;101623.19;5094784;28;20635;-66
2023/01/06 08:22:39;;;;;;;1.10;0.80;;;;;;;11.35;73.97;101617.81;5101015;28;20504;-65
2023/01/06 08:25:08;;;;;;;2.78;0.82;;;;;;;11.39;73.88;101624.44;5101362;28;20066;-62
2023/01/06 08:27:36;;;;;;;2.05;1.00;;;;;;;11.37;73.80;101630.03;5097586;28;20044;-64
2023/01/06 08:30:05;;;;;;;0.88;0.70;;;;;;;11.38;73.63;101638.94;5099198;28;20107;-66
2023/01/06 08:32:33;;;;;;;2.63;1.10;;;;;;;11.37;74.16;101631.91;5099412;28;20088;-66
2023/01/06 08:35:01;;;;;;;2.97;0.90;;;;;;;11.35;74.11;101639.34;5099647;28;20048;-71
2023/01/06 08:37:28;;;;;;;3.00;1.52;;;;;;;11.34;74.30;101635.81;5103830;28;20054;-68
2023/01/06 08:39:58;;;;;;;3.55;1.08;;;;;;;11.33;73.93;101639.56;5108404;28;20131;-68
2023/01/06 08:42:25;;;;;;;1.27;0.80;;;;;;;11.33;74.20;101650.31;5095829;28;20062;-68
2023/01/06 08:44:53;;;;;;;2.75;0.73;;;;;;;11.34;74.19;101653.84;5094222;28;20075;-69
2023/01/06 08:47:21;;;;;;;2.33;0.90;;;;;;;11.33;74.20;101650.31;5085461;28;20112;-69
2023/01/06 08:49:49;;;;;;;1.40;0.50;;;;;;;11.34;74.14;101654.66;5097916;28;20123;-68
2023/01/06 08:52:17;;;;;;;2.17;0.80;;;;;;;11.33;73.96;101666.47;5099644;28;20128;-69
2023/01/06 08:54:45;;;;;;;1.13;0.68;;;;;;;11.34;73.84;101668.13;5101312;28;20123;-68
2023/01/06 08:57:15;;;;;;;4.15;1.67;;;;;;;11.35;74.13;101671.63;5097228;28;20070;-69
2023/01/06 08:59:43;;;;;;;0.90;0.68;;;;;;;11.36;73.87;101684.88;5096652;28;20074;-69
2023/01/06 09:02:11;;;;;;;1.75;0.98;;;;;;;11.36;74.10;101676.00;5099304;28;20060;-70
2023/01/06 09:04:39;;;;;;;1.00;0.70;;;;;;;11.37;73.89;101688.41;5103712;28;20044;-70
2023/01/06 09:07:07;;;;;;;1.38;0.90;;;;;;;11.39;73.85;101676.41;5093287;28;20052;-70
2023/01/06 09:09:35;;;;;;;1.35;1.10;;;;;;;11.38;73.97;101679.31;5104793;28;20052;-70
2023/01/06 09:12:02;;;;;;;1.77;0.75;;;;;;;11.37;74.11;101678.47;5104676;28;20062;-69
2023/01/06 09:14:32;;;;;;;1.75;0.73;;;;;;;11.38;74.15;101687.38;5102602;28;20072;-67
2023/01/06 09:17:00;;;;;;;1.90;1.20;;;;;;;11.38;74.00;101692.75;5098065;28;20509;-68
2023/01/06 09:19:28;;;;;;;2.92;0.90;;;;;;;11.37;74.24;101689.25;5104468;28;20083;-68
2023/01/06 09:21:56;;;;;;;1.13;0.77;;;;;;;11.37;74.38;101696.47;5101865;28;20485;-68
2023/01/06 09:24:24;;;;;;;2.70;0.95;;;;;;;11.37;74.27;101697.31;5103844;28;20063;-70
2023/01/06 09:26:51;;;;;;;1.25;0.93;;;;;;;11.38;74.14;101706.22;5100841;28;20044;-67
2023/01/06 09:29:20;;;;;;;1.17;0.60;;;;;;;11.45;73.98;101712.44;5103182;28;20064;-66
2023/01/06 09:31:49;;;;;;;1.85;0.90;;;;;;;11.59;73.67;101714.09;5104417;28;20111;-69
2023/01/06 09:34:17;;;;;;;1.27;0.98;;;;;;;11.79;72.96;101721.38;5104771;28;20481;-66
2023/01/06 09:36:45;;;;;;;4.10;1.20;;;;;;;11.97;72.21;101721.56;5093483;28;20119;-69
2023/01/06 09:39:13;;;;;;;5.13;1.45;;;;;;;12.15;71.95;101729.78;5104141;28;20044;-69
2023/01/06 09:41:54;;;;;;;4.82;1.40;;;;;;;12.35;71.18;101735.13;5097727;28;20083;-69
2023/01/06 09:44:28;;;;;;;1.60;1.00;;;;;;;12.51;70.27;101729.25;5103620;28;20055;-69
2023/01/06 09:47:00;;;;;;;3.20;1.85;;;;;;;12.68;70.25;101740.41;5103006;28;20048;-68
2023/01/06 09:49:33;;;;;;;1.88;1.30;;;;;;;12.83;69.06;101734.75;5102498;28;20293;-70
2023/01/06 09:52:05;;;;;;;2.05;1.20;;;;;;;12.97;68.51;101739.03;5098867;28;20474;-68
2023/01/06 09:54:39;;;;;;;1.20;0.82;;;;;;;13.07;68.21;101730.47;5101389;28;20055;-68
2023/01/06 09:57:13;;;;;;;1.90;1.02;;;;;;;13.17;68.05;101733.53;5100430;28;20067;-68
2023/01/06 09:59:47;;;;;;;2.47;1.40;;;;;;;13.22;67.54;101739.94;5102215;28;20059;-63
2023/01/06 10:02:22;;;;;;;4.05;1.25;;;;;;;13.26;67.70;101746.56;5102920;28;20075;-63
2023/01/06 10:04:50;;;;;;;5.07;1.92;;;;;;;13.32;67.32;101743.00;5102619;28;20051;-65
2023/01/06 10:07:24;;;;;;;4.05;1.50;;;;;;;13.35;67.40;101753.34;5103721;28;20476;-69
2023/01/06 10:10:03;;;;;;;9.02;1.35;;;;;;;13.37;67.57;101753.13;5098594;28;20056;-65
2023/01/06 10:12:48;;;;;;;4.15;1.27;;;;;;;13.40;67.21;101758.09;5099058;28;20044;-65
2023/01/06 10:15:24;;;;;;;5.72;1.40;;;;;;;13.41;67.06;101745.44;5101032;28;20055;-67
2023/01/06 10:18:10;;;;;;;6.38;1.20;;;;;;;13.40;67.29;101749.19;5100259;28;20048;-68
2023/01/06 10:20:54;;;;;;;5.35;1.50;;;;;;;13.30;67.63;101745.09;5103747;28;20044;-67
2023/01/06 10:23:37;;;;;;;3.50;1.02;;;;;;;13.12;67.70;101742.25;5102707;28;20127;-67
2023/01/06 10:26:12;;;;;;;3.05;1.40;;;;;;;12.93;68.44;101744.03;5099361;28;20147;-66
2023/01/06 10:28:43;;;;;;;1.67;1.15;;;;;;;12.77;69.37;101746.38;5105027;28;20044;-67
2023/01/06 10:31:17;;;;;;;12.95;2.22;;;;;;;12.64;69.57;101741.88;5103582;28;20580;-67
2023/01/06 10:33:50;;;;;;;3.47;1.45;;;;;;;12.52;70.44;101749.78;5101662;28;20055;-67
2023/01/06 10:36:31;;;;;;;5.70;2.10;;;;;;;12.42;70.71;101745.88;5107273;28;20055;-67
2023/01/06 10:39:05;;;;;;;6.40;2.10;;;;;;;12.34;71.17;101753.16;5105098;28;20051;-65
2023/01/06 10:41:44;;;;;;;4.00;1.73;;;;;;;12.29;71.03;101744.06;5107186;28;20131;-65
2023/01/06 10:44:13;;;;;;;4.60;2.35;;;;;;;12.22;71.56;101744.06;5106049;28;20063;-66
2023/01/06 10:46:44;;;;;;;3.97;1.70;;;;;;;12.21;71.48;101742.41;5102649;28;20489;-66
2023/01/06 10:49:17;;;;;;;3.50;2.13;;;;;;;12.20;71.51;101750.72;5107313;28;20098;-65
2023/01/06 10:51:50;;;;;;;3.33;2.20;;;;;;;12.16;71.90;101749.47;5104475;28;20045;-66
2023/01/06 10:54:22;;;;;;;6.63;2.55;;;;;;;12.13;71.64;101739.97;5106648;28;20047;-65
2023/01/06 10:56:54;;;;;;;5.38;2.60;;;;;;;12.11;71.63;101743.91;5106881;28;20048;-61
2023/01/06 10:59:22;;;;;;;5.13;3.03;;;;;;;12.10;71.81;101742.25;5103348;28;20520;-66
2023/01/06 11:01:51;;;;;;;7.25;2.83;;;;;;;12.00;72.19;101734.59;5107226;28;20119;-66
2023/01/06 11:04:21;;;;;;;5.43;2.65;;;;;;;12.07;71.63;101743.50;5103108;28;20396;-65
2023/01/06 11:06:51;;;;;;;8.90;3.08;;;;;;;12.02;71.60;101740.63;5107081;28;20044;-67
2023/01/06 11:09:30;;;;;;;5.15;3.25;;;;;;;12.02;71.96;101748.69;5106476;28;20044;-67
2023/01/06 11:12:01;;;;;;;5.65;2.45;;;;;;;12.01;72.15;101741.66;5093310;28;20080;-67
2023/01/06 11:14:32;;;;;;;6.80;3.33;;;;;;;12.02;72.42;101746.00;5093230;28;20052;-65
2023/01/06 11:17:02;;;;;;;6.55;3.33;;;;;;;12.00;71.98;101738.13;5104424;28;20150;-64
2023/01/06 11:19:39;;;;;;;5.28;3.05;;;;;;;11.98;72.19;101734.81;5106017;28;20608;-66
2023/01/06 11:22:31;;;;;;;7.45;3.58;;;;;;;11.99;71.80;101741.03;5107500;28;20044;-67
2023/01/06 11:24:59;;;;;;;6.95;3.95;;;;;;;11.96;71.93;101728.81;5100388;28;20460;-66
2023/01/06 11:27:27;;;;;;;6.32;3.60;;;;;;;11.99;71.87;101741.03;5105161;28;20107;-65
2023/01/06 11:29:55;;;;;;;5.90;3.33;;;;;;;11.99;71.84;101744.56;5102114;28;20548;-65
2023/01/06 11:32:26;;;;;;;7.13;3.28;;;;;;;11.98;71.99;101747.47;5106837;28;20052;-65
2023/01/06 11:34:58;;;;;;;9.65;3.78;;;;;;;11.96;71.65;101738.75;5093617;28;20094;-67
2023/01/06 11:37:36;;;;;;;8.45;3.00;;;;;;;11.96;71.90;101741.44;5106365;28;20135;-67
2023/01/06 11:40:18;;;;;;;7.30;3.17;;;;;;;11.96;71.71;101736.06;4742889;28;10000184;-66
2023/01/06 11:42:49;;;;;;;9.15;3.30;;;;;;;11.96;71.87;101734.19;5102698;28;20048;-66
2023/01/06 11:45:33;;;;;;;7.57;3.22;;;;;;;11.96;71.72;101733.38;5099830;28;20052;-68
2023/01/06 11:48:02;;;;;;;7.65;2.97;;;;;;;11.96;71.34;101734.19;5102629;28;20106;-68